Aérodrome :
LOGIN :

S'inscrire | Disclaimer

   EN    FR    IT 

 










Légende :    VFR   VFR Marginal   IFR   IFR Intensif   IFR Très Intensif
Visi : 
Plafond : 
>= 8 km
>= 3000ft
5 à 8 km
1000 à 3000 ft
1500m à 5 km
500 à 1000 ft
800 à 1500m
200 à 500 ft
< 800m
< 200 ft
Symboles :   Orages  Brouillard  Fortes neiges  Fortes précipitations  Vent > 20 kt
SIGMETs :   Divers  Orages  Givrage  Turbulence  Onde Orograph.  Cendres Volcan.







- Altitude de l'aérodrome : 247 ft
- Code IATA : BLL


EKBI - Billund

DERNIER METAR :
  • 181920Z AUTO 23008KT 9999NDV FEW015/// SCT041/// BKN054/// 15/12 Q1014

METARs EXPIRÉS :
  • 181850Z AUTO 23009KT 200V260 9999NDV FEW015/// BKN057/// 15/13 Q1014
  • 181820Z AUTO 23011KT 9999NDV SCT014/// BKN058/// 16/13 Q1014
  • 181750Z AUTO 22011KT 190V250 9999NDV SCT013/// BKN057/// 16/13 Q1014
  • 181720Z AUTO 23011KT 9999NDV FEW013/// BKN057/// 16/13 Q1015
  • 181650Z AUTO 23009KT 200V260 9999NDV SCT014/// BKN057/// 16/13 Q1015
  • 181620Z AUTO 23013KT 9999NDV SCT013/// BKN049/// BKN062/// 17/13 Q1015

TAF TAF EKBI
Valide du 18 à 18h jusqu'au 19 à 18h UTC


181653Z 1818/1918 22012KT 9999 SCT010 BKN020
TEMPO 1818/1906 BKN012
BECMG 1905/1908 28012KT
Pas de NOTAMs connus pour ce terrain.



MET'MAP, la Météo Aéronautique d'un coup d'oeil ! - Copyright ORBIFLY Décembre 2007 - Disclaimer

ORBIFLY MET'MAP TEAM :

Programmation & Développement : Alexandra Zaïnal
Conception & Développement : Baudouin d'Aumeries
Co-Programmation & Développement : Marc-Olivier Méhu
Soutien technique & logistique : Manuel Goepfert

Contact : metmap@orbifly.com




SOURCES & CREDITS :

   NOAA